sensor_id;sensor_type;location;lat;lon;timestamp;pressure;altitude;pressure_sealevel;temperature;humidity
10470;BME280;5282;47.052;15.458;2023-04-01T00:02:01;96273.06;;;8.10;100.00
10470;BME280;5282;47.052;15.458;2023-04-01T00:04:29;96267.91;;;8.09;100.00
10470;BME280;5282;47.052;15.458;2023-04-01T00:06:57;96273.72;;;8.12;100.00
10470;BME280;5282;47.052;15.458;2023-04-01T00:09:25;96265.69;;;8.12;100.00
10470;BME280;5282;47.052;15.458;2023-04-01T00:11:52;96273.06;;;8.10;100.00
10470;BME280;5282;47.052;15.458;2023-04-01T00:14:20;96264.22;;;8.10;100.00
10470;BME280;5282;47.052;15.458;2023-04-01T00:16:48;96263.81;;;8.13;100.00
10470;BME280;5282;47.052;15.458;2023-04-01T00:19:15;96257.72;;;8.04;100.00
10470;BME280;5282;47.052;15.458;2023-04-01T00:21:44;96255.22;;;8.02;100.00
10470;BME280;5282;47.052;15.458;2023-04-01T00:24:11;96251.63;;;7.95;100.00
10470;BME280;5282;47.052;15.458;2023-04-01T00:26:39;96245.91;;;7.98;100.00
10470;BME280;5282;47.052;15.458;2023-04-01T00:29:07;96249.59;;;7.97;100.00
10470;BME280;5282;47.052;15.458;2023-04-01T00:31:35;96249.84;;;7.87;100.00
10470;BME280;5282;47.052;15.458;2023-04-01T00:34:02;96248.38;;;8.00;100.00
10470;BME280;5282;47.052;15.458;2023-04-01T00:36:30;96250.59;;;7.96;100.00
10470;BME280;5282;47.052;15.458;2023-04-01T00:38:58;96236.00;;;7.99;100.00
10470;BME280;5282;47.052;15.458;2023-04-01T00:41:27;96251.16;;;7.92;100.00
10470;BME280;5282;47.052;15.458;2023-04-01T00:44:14;96241.91;;;7.94;100.00
10470;BME280;5282;47.052;15.458;2023-04-01T00:46:42;96245.59;;;7.93;100.00
10470;BME280;5282;47.052;15.458;2023-04-01T00:49:09;96235.34;;;7.97;100.00
10470;BME280;5282;47.052;15.458;2023-04-01T00:51:37;96226.47;;;7.96;100.00
10470;BME280;5282;47.052;15.458;2023-04-01T00:54:08;96228.31;;;7.96;100.00
10470;BME280;5282;47.052;15.458;2023-04-01T00:56:38;96229.16;;;7.96;100.00
10470;BME280;5282;47.052;15.458;2023-04-01T00:59:11;96218.06;;;7.99;100.00
10470;BME280;5282;47.052;15.458;2023-04-01T01:01:40;96215.47;;;7.91;100.00
10470;BME280;5282;47.052;15.458;2023-04-01T01:04:21;96205.03;;;7.96;100.00
10470;BME280;5282;47.052;15.458;2023-04-01T01:06:56;96201.59;;;7.87;100.00
10470;BME280;5282;47.052;15.458;2023-04-01T01:09:34;96205.84;;;7.82;100.00
10470;BME280;5282;47.052;15.458;2023-04-01T01:12:08;96210.56;;;7.80;100.00
10470;BME280;5282;47.052;15.458;2023-04-01T01:14:47;96206.03;;;7.80;100.00
10470;BME280;5282;47.052;15.458;2023-04-01T01:17:22;96201.59;;;7.72;100.00
10470;BME280;5282;47.052;15.458;2023-04-01T01:20:39;96201.28;;;7.67;100.00
10470;BME280;5282;47.052;15.458;2023-04-01T01:26:46;96201.94;;;7.69;100.00
10470;BME280;5282;47.052;15.458;2023-04-01T01:29:51;96212.09;;;7.59;100.00
10470;BME280;5282;47.052;15.458;2023-04-01T01:35:20;96202.72;;;7.55;100.00
10470;BME280;5282;47.052;15.458;2023-04-01T01:37:52;96197.38;;;7.55;100.00
10470;BME280;5282;47.052;15.458;2023-04-01T01:40:21;96193.41;;;7.51;100.00
10470;BME280;5282;47.052;15.458;2023-04-01T01:42:51;96181.03;;;7.50;100.00
10470;BME280;5282;47.052;15.458;2023-04-01T01:45:23;96176.59;;;7.57;100.00
10470;BME280;5282;47.052;15.458;2023-04-01T01:47:52;96173.38;;;7.62;100.00
10470;BME280;5282;47.052;15.458;2023-04-01T01:50:23;96178.28;;;7.58;100.00
10470;BME280;5282;47.052;15.458;2023-04-01T01:53:00;96175.41;;;7.60;100.00
10470;BME280;5282;47.052;15.458;2023-04-01T01:55:29;96177.06;;;7.61;100.00
10470;BME280;5282;47.052;15.458;2023-04-01T01:57:59;96164.88;;;7.58;100.00
10470;BME280;5282;47.052;15.458;2023-04-01T02:00:28;96161.00;;;7.61;100.00
10470;BME280;5282;47.052;15.458;2023-04-01T02:02:57;96160.28;;;7.52;100.00
10470;BME280;5282;47.052;15.458;2023-04-01T02:05:28;96157.59;;;7.52;100.00
10470;BME280;5282;47.052;15.458;2023-04-01T02:08:01;96155.72;;;7.52;100.00
10470;BME280;5282;47.052;15.458;2023-04-01T02:10:32;96155.91;;;7.51;100.00
10470;BME280;5282;47.052;15.458;2023-04-01T02:13:06;96159.63;;;7.50;100.00
10470;BME280;5282;47.052;15.458;2023-04-01T02:15:37;96168.66;;;7.49;100.00
10470;BME280;5282;47.052;15.458;2023-04-01T02:18:07;96168.66;;;7.49;100.00
10470;BME280;5282;47.052;15.458;2023-04-01T02:20:38;96165.56;;;7.37;100.00
10470;BME280;5282;47.052;15.458;2023-04-01T02:23:09;96163.28;;;7.34;100.00
10470;BME280;5282;47.052;15.458;2023-04-01T02:25:38;96153.81;;;7.23;100.00
10470;BME280;5282;47.052;15.458;2023-04-01T02:28:07;96152.72;;;7.32;100.00
10470;BME280;5282;47.052;15.458;2023-04-01T02:30:38;96158.38;;;7.37;100.00
10470;BME280;5282;47.052;15.458;2023-04-01T02:33:06;96167.72;;;7.41;100.00
10470;BME280;5282;47.052;15.458;2023-04-01T02:35:36;96167.44;;;7.36;100.00
10470;BME280;5282;47.052;15.458;2023-04-01T02:38:04;96168.50;;;7.27;100.00
10470;BME280;5282;47.052;15.458;2023-04-01T02:40:42;96180.13;;;7.19;100.00
10470;BME280;5282;47.052;15.458;2023-04-01T02:43:09;96186.59;;;7.25;100.00
10470;BME280;5282;47.052;15.458;2023-04-01T02:45:37;96193.44;;;7.28;100.00
10470;BME280;5282;47.052;15.458;2023-04-01T02:48:05;96185.94;;;7.23;100.00
10470;BME280;5282;47.052;15.458;2023-04-01T02:50:32;96184.66;;;7.19;100.00
10470;BME280;5282;47.052;15.458;2023-04-01T02:53:01;96188.19;;;6.88;100.00
10470;BME280;5282;47.052;15.458;2023-04-01T02:55:29;96190.94;;;6.79;100.00
10470;BME280;5282;47.052;15.458;2023-04-01T02:57:57;96187.97;;;6.98;100.00
10470;BME280;5282;47.052;15.458;2023-04-01T03:00:25;96191.53;;;6.90;100.00
10470;BME280;5282;47.052;15.458;2023-04-01T03:02:53;96183.91;;;7.02;100.00
10470;BME280;5282;47.052;15.458;2023-04-01T03:05:21;96180.94;;;6.97;100.00
10470;BME280;5282;47.052;15.458;2023-04-01T03:07:48;96189.34;;;6.93;100.00
10470;BME280;5282;47.052;15.458;2023-04-01T03:10:19;96181.50;;;6.92;100.00
10470;BME280;5282;47.052;15.458;2023-04-01T03:12:47;96180.63;;;6.91;100.00
10470;BME280;5282;47.052;15.458;2023-04-01T03:15:15;96182.56;;;7.06;100.00
10470;BME280;5282;47.052;15.458;2023-04-01T03:17:44;96186.78;;;7.00;100.00
10470;BME280;5282;47.052;15.458;2023-04-01T03:20:13;96188.13;;;6.96;100.00
10470;BME280;5282;47.052;15.458;2023-04-01T03:22:40;96191.53;;;6.90;100.00
10470;BME280;5282;47.052;15.458;2023-04-01T03:25:09;96202.34;;;6.97;100.00
10470;BME280;5282;47.052;15.458;2023-04-01T03:27:38;96207.72;;;6.97;100.00
10470;BME280;5282;47.052;15.458;2023-04-01T03:30:07;96209.91;;;6.93;100.00
10470;BME280;5282;47.052;15.458;2023-04-01T03:32:44;96212.47;;;6.86;100.00
10470;BME280;5282;47.052;15.458;2023-04-01T03:35:11;96215.28;;;6.85;100.00
10470;BME280;5282;47.052;15.458;2023-04-01T03:37:39;96214.94;;;6.88;100.00
10470;BME280;5282;47.052;15.458;2023-04-01T03:40:07;96222.91;;;6.96;100.00
10470;BME280;5282;47.052;15.458;2023-04-01T03:42:34;96232.94;;;6.71;100.00
10470;BME280;5282;47.052;15.458;2023-04-01T03:45:03;96219.00;;;6.84;100.00
10470;BME280;5282;47.052;15.458;2023-04-01T03:47:30;96221.16;;;6.88;100.00
10470;BME280;5282;47.052;15.458;2023-04-01T03:49:58;96233.69;;;6.88;100.00
10470;BME280;5282;47.052;15.458;2023-04-01T03:52:24;96225.44;;;6.98;100.00
10470;BME280;5282;47.052;15.458;2023-04-01T03:54:51;96246.50;;;6.69;100.00
10470;BME280;5282;47.052;15.458;2023-04-01T03:57:19;96233.78;;;6.71;100.00
10470;BME280;5282;47.052;15.458;2023-04-01T03:59:47;96224.50;;;6.82;100.00
10470;BME280;5282;47.052;15.458;2023-04-01T04:02:17;96238.56;;;6.84;100.00
10470;BME280;5282;47.052;15.458;2023-04-01T04:04:44;96240.63;;;6.74;100.00
10470;BME280;5282;47.052;15.458;2023-04-01T04:07:12;96240.75;;;6.81;100.00
10470;BME280;5282;47.052;15.458;2023-04-01T04:09:39;96248.03;;;6.63;100.00
10470;BME280;5282;47.052;15.458;2023-04-01T04:12:06;96251.03;;;6.60;100.00
10470;BME280;5282;47.052;15.458;2023-04-01T04:14:33;96241.16;;;6.69;100.00
10470;BME280;5282;47.052;15.458;2023-04-01T04:17:01;96248.13;;;6.78;100.00
10470;BME280;5282;47.052;15.458;2023-04-01T04:19:32;96247.41;;;6.85;100.00
10470;BME280;5282;47.052;15.458;2023-04-01T04:22:02;96245.22;;;6.57;100.00
10470;BME280;5282;47.052;15.458;2023-04-01T04:24:29;96259.63;;;6.47;100.00
10470;BME280;5282;47.052;15.458;2023-04-01T04:26:56;96259.41;;;6.57;100.00
10470;BME280;5282;47.052;15.458;2023-04-01T04:29:24;96253.81;;;6.75;100.00
10470;BME280;5282;47.052;15.458;2023-04-01T04:31:51;96250.97;;;6.77;100.00
10470;BME280;5282;47.052;15.458;2023-04-01T04:34:19;96244.78;;;6.76;100.00
10470;BME280;5282;47.052;15.458;2023-04-01T04:36:49;96249.47;;;6.74;100.00
10470;BME280;5282;47.052;15.458;2023-04-01T04:39:18;96241.22;;;6.84;100.00
10470;BME280;5282;47.052;15.458;2023-04-01T04:41:45;96243.25;;;6.82;100.00
10470;BME280;5282;47.052;15.458;2023-04-01T04:44:13;96240.81;;;6.72;100.00
10470;BME280;5282;47.052;15.458;2023-04-01T04:46:40;96251.53;;;6.64;100.00
10470;BME280;5282;47.052;15.458;2023-04-01T04:49:10;96244.97;;;6.75;100.00
10470;BME280;5282;47.052;15.458;2023-04-01T04:51:37;96246.16;;;6.72;100.00
10470;BME280;5282;47.052;15.458;2023-04-01T04:54:06;96234.81;;;6.62;100.00
10470;BME280;5282;47.052;15.458;2023-04-01T04:56:33;96233.25;;;6.76;100.00
10470;BME280;5282;47.052;15.458;2023-04-01T04:59:01;96240.81;;;6.72;100.00
10470;BME280;5282;47.052;15.458;2023-04-01T05:01:29;96228.44;;;6.71;100.00
10470;BME280;5282;47.052;15.458;2023-04-01T05:03:56;96237.28;;;6.72;100.00
10470;BME280;5282;47.052;15.458;2023-04-01T05:06:24;96230.75;;;6.74;100.00
10470;BME280;5282;47.052;15.458;2023-04-01T05:08:56;96240.72;;;6.49;100.00
10470;BME280;5282;47.052;15.458;2023-04-01T05:11:26;96243.97;;;6.36;100.00
10470;BME280;5282;47.052;15.458;2023-04-01T05:13:53;96248.09;;;6.47;100.00
10470;BME280;5282;47.052;15.458;2023-04-01T05:16:20;96255.63;;;6.43;100.00
10470;BME280;5282;47.052;15.458;2023-04-01T05:18:47;96246.25;;;6.47;100.00
10470;BME280;5282;47.052;15.458;2023-04-01T05:21:15;96254.06;;;6.57;100.00
10470;BME280;5282;47.052;15.458;2023-04-01T05:23:43;96245.50;;;6.70;100.00
10470;BME280;5282;47.052;15.458;2023-04-01T05:26:12;96250.84;;;6.62;100.00
10470;BME280;5282;47.052;15.458;2023-04-01T05:28:41;96255.09;;;6.48;100.00
10470;BME280;5282;47.052;15.458;2023-04-01T05:31:08;96252.22;;;6.58;100.00
10470;BME280;5282;47.052;15.458;2023-04-01T05:33:36;96252.00;;;6.68;100.00
10470;BME280;5282;47.052;15.458;2023-04-01T05:36:07;96258.53;;;6.65;100.00
10470;BME280;5282;47.052;15.458;2023-04-01T05:38:34;96256.16;;;6.78;100.00
10470;BME280;5282;47.052;15.458;2023-04-01T05:41:02;96250.06;;;6.85;100.00
10470;BME280;5282;47.052;15.458;2023-04-01T05:43:30;96246.50;;;7.01;100.00
10470;BME280;5282;47.052;15.458;2023-04-01T05:45:58;96251.47;;;7.04;100.00
10470;BME280;5282;47.052;15.458;2023-04-01T05:48:25;96265.66;;;6.81;100.00
10470;BME280;5282;47.052;15.458;2023-04-01T05:50:52;96256.34;;;7.00;100.00
10470;BME280;5282;47.052;15.458;2023-04-01T05:53:21;96250.53;;;6.97;100.00
10470;BME280;5282;47.052;15.458;2023-04-01T05:55:48;96253.59;;;7.17;100.00
10470;BME280;5282;47.052;15.458;2023-04-01T05:58:15;96254.25;;;7.19;100.00
10470;BME280;5282;47.052;15.458;2023-04-01T06:00:42;96262.19;;;7.04;100.00
10470;BME280;5282;47.052;15.458;2023-04-01T06:03:11;96258.88;;;7.25;100.00
10470;BME280;5282;47.052;15.458;2023-04-01T06:05:40;96242.41;;;7.36;100.00
10470;BME280;5282;47.052;15.458;2023-04-01T06:08:11;96244.19;;;7.44;100.00
10470;BME280;5282;47.052;15.458;2023-04-01T06:10:48;96236.63;;;7.48;100.00
10470;BME280;5282;47.052;15.458;2023-04-01T06:13:26;96242.31;;;7.45;100.00
10470;BME280;5282;47.052;15.458;2023-04-01T06:16:04;96234.34;;;7.60;100.00
10470;BME280;5282;47.052;15.458;2023-04-01T06:18:57;96240.28;;;7.70;100.00
10470;BME280;5282;47.052;15.458;2023-04-01T06:21:46;96236.41;;;7.72;100.00
10470;BME280;5282;47.052;15.458;2023-04-01T06:24:34;96240.50;;;7.83;100.00
10470;BME280;5282;47.052;15.458;2023-04-01T06:27:09;96235.63;;;7.87;100.00
10470;BME280;5282;47.052;15.458;2023-04-01T06:29:53;96234.69;;;7.95;100.00
10470;BME280;5282;47.052;15.458;2023-04-01T06:32:38;96235.03;;;7.77;100.00
10470;BME280;5282;47.052;15.458;2023-04-01T06:35:19;96242.00;;;7.86;100.00
10470;BME280;5282;47.052;15.458;2023-04-01T06:38:03;96247.28;;;8.09;100.00
10470;BME280;5282;47.052;15.458;2023-04-01T06:40:52;96238.69;;;8.14;100.00
10470;BME280;5282;47.052;15.458;2023-04-01T06:43:34;96236.38;;;8.26;100.00
10470;BME280;5282;47.052;15.458;2023-04-01T06:46:06;96231.13;;;8.32;100.00
10470;BME280;5282;47.052;15.458;2023-04-01T06:48:49;96236.66;;;8.31;100.00
10470;BME280;5282;47.052;15.458;2023-04-01T06:51:30;96248.03;;;8.33;100.00
10470;BME280;5282;47.052;15.458;2023-04-01T06:54:03;96249.25;;;8.30;100.00
10470;BME280;5282;47.052;15.458;2023-04-01T06:56:32;96256.53;;;8.37;100.00
10470;BME280;5282;47.052;15.458;2023-04-01T06:59:03;96260.72;;;8.39;100.00
10470;BME280;5282;47.052;15.458;2023-04-01T07:01:35;96261.47;;;8.48;100.00
10470;BME280;5282;47.052;15.458;2023-04-01T07:04:06;96266.28;;;8.53;100.00
10470;BME280;5282;47.052;15.458;2023-04-01T07:06:39;96254.53;;;8.54;100.00
10470;BME280;5282;47.052;15.458;2023-04-01T07:09:12;96265.72;;;8.57;100.00
10470;BME280;5282;47.052;15.458;2023-04-01T07:11:42;96258.06;;;8.54;100.00
10470;BME280;5282;47.052;15.458;2023-04-01T07:14:15;96272.03;;;8.49;100.00
10470;BME280;5282;47.052;15.458;2023-04-01T07:16:47;96270.16;;;8.65;100.00
10470;BME280;5282;47.052;15.458;2023-04-01T07:19:21;96273.94;;;8.71;100.00
10470;BME280;5282;47.052;15.458;2023-04-01T07:21:54;96279.78;;;8.59;100.00
10470;BME280;5282;47.052;15.458;2023-04-01T07:24:24;96280.44;;;8.61;100.00
10470;BME280;5282;47.052;15.458;2023-04-01T07:26:54;96283.66;;;8.72;100.00
10470;BME280;5282;47.052;15.458;2023-04-01T07:29:22;96283.00;;;8.85;100.00
10470;BME280;5282;47.052;15.458;2023-04-01T07:32:06;96281.31;;;8.99;100.00
10470;BME280;5282;47.052;15.458;2023-04-01T07:34:41;96278.97;;;9.10;100.00
10470;BME280;5282;47.052;15.458;2023-04-01T07:37:14;96277.94;;;9.11;100.00
10470;BME280;5282;47.052;15.458;2023-04-01T07:39:51;96274.88;;;9.15;100.00
10470;BME280;5282;47.052;15.458;2023-04-01T07:42:33;96281.06;;;9.15;100.00
10470;BME280;5282;47.052;15.458;2023-04-01T07:45:09;96277.56;;;9.15;100.00
10470;BME280;5282;47.052;15.458;2023-04-01T07:47:54;96279.88;;;9.18;100.00
10470;BME280;5282;47.052;15.458;2023-04-01T07:50:27;96281.34;;;9.20;100.00
10470;BME280;5282;47.052;15.458;2023-04-01T07:53:05;96272.06;;;9.23;100.00
10470;BME280;5282;47.052;15.458;2023-04-01T07:55:40;96278.94;;;9.25;100.00
10470;BME280;5282;47.052;15.458;2023-04-01T07:58:14;96285.13;;;9.26;100.00
10470;BME280;5282;47.052;15.458;2023-04-01T08:00:49;96281.44;;;9.27;100.00
10470;BME280;5282;47.052;15.458;2023-04-01T08:03:33;96292.41;;;9.32;100.00
10470;BME280;5282;47.052;15.458;2023-04-01T08:06:07;96293.59;;;9.45;100.00
10470;BME280;5282;47.052;15.458;2023-04-01T08:08:50;96291.47;;;9.62;100.00
10470;BME280;5282;47.052;15.458;2023-04-01T08:11:31;96285.91;;;9.85;100.00
10470;BME280;5282;47.052;15.458;2023-04-01T08:14:08;96287.22;;;9.96;100.00
10470;BME280;5282;47.052;15.458;2023-04-01T08:16:46;96287.69;;;9.99;100.00
10470;BME280;5282;47.052;15.458;2023-04-01T08:19:22;96287.22;;;10.17;100.00
10470;BME280;5282;47.052;15.458;2023-04-01T08:21:56;96292.16;;;10.42;100.00
10470;BME280;5282;47.052;15.458;2023-04-01T08:24:29;96296.03;;;10.68;100.00
10470;BME280;5282;47.052;15.458;2023-04-01T08:27:03;96284.75;;;10.86;100.00
10470;BME280;5282;47.052;15.458;2023-04-01T08:29:37;96292.03;;;10.92;100.00
10470;BME280;5282;47.052;15.458;2023-04-01T08:32:11;96286.28;;;11.09;100.00
10470;BME280;5282;47.052;15.458;2023-04-01T08:34:42;96276.22;;;11.31;100.00
10470;BME280;5282;47.052;15.458;2023-04-01T08:37:14;96291.22;;;11.54;100.00
10470;BME280;5282;47.052;15.458;2023-04-01T08:39:48;96287.28;;;11.63;100.00
10470;BME280;5282;47.052;15.458;2023-04-01T08:42:35;96291.03;;;11.76;100.00
10470;BME280;5282;47.052;15.458;2023-04-01T08:45:21;96291.00;;;11.62;100.00
10470;BME280;5282;47.052;15.458;2023-04-01T08:48:08;96284.31;;;11.45;100.00
10470;BME280;5282;47.052;15.458;2023-04-01T08:54:05;96290.84;;;11.97;100.00
10470;BME280;5282;47.052;15.458;2023-04-01T08:56:42;96293.56;;;12.11;100.00
10470;BME280;5282;47.052;15.458;2023-04-01T09:05:12;96294.00;;;12.14;100.00
10470;BME280;5282;47.052;15.458;2023-04-01T09:07:57;96299.38;;;12.34;100.00
10470;BME280;5282;47.052;15.458;2023-04-01T09:10:42;96302.28;;;12.26;100.00
10470;BME280;5282;47.052;15.458;2023-04-01T09:13:35;96301.84;;;12.49;100.00
10470;BME280;5282;47.052;15.458;2023-04-01T09:16:20;96308.88;;;12.71;100.00
10470;BME280;5282;47.052;15.458;2023-04-01T09:19:11;96304.69;;;12.75;100.00
10470;BME280;5282;47.052;15.458;2023-04-01T09:21:55;96301.34;;;12.86;100.00
10470;BME280;5282;47.052;15.458;2023-04-01T09:25:00;96308.66;;;12.79;100.00
10470;BME280;5282;47.052;15.458;2023-04-01T09:27:31;96310.72;;;12.84;100.00
10470;BME280;5282;47.052;15.458;2023-04-01T09:30:28;96305.69;;;12.94;100.00
10470;BME280;5282;47.052;15.458;2023-04-01T09:33:36;96303.75;;;13.08;100.00
10470;BME280;5282;47.052;15.458;2023-04-01T09:36:17;96308.31;;;13.21;100.00
10470;BME280;5282;47.052;15.458;2023-04-01T09:38:56;96307.81;;;13.31;100.00
10470;BME280;5282;47.052;15.458;2023-04-01T09:41:30;96308.19;;;13.48;100.00
10470;BME280;5282;47.052;15.458;2023-04-01T09:44:05;96308.66;;;13.45;100.00
10470;BME280;5282;47.052;15.458;2023-04-01T09:46:50;96314.44;;;13.48;100.00
10470;BME280;5282;47.052;15.458;2023-04-01T09:49:35;96317.31;;;13.53;100.00
10470;BME280;5282;47.052;15.458;2023-04-01T09:52:20;96314.66;;;13.47;100.00
10470;BME280;5282;47.052;15.458;2023-04-01T09:55:19;96310.09;;;13.40;100.00
10470;BME280;5282;47.052;15.458;2023-04-01T09:58:16;96312.88;;;13.20;100.00
10470;BME280;5282;47.052;15.458;2023-04-01T10:01:10;96309.69;;;13.37;100.00
10470;BME280;5282;47.052;15.458;2023-04-01T10:04:01;96313.56;;;13.54;99.79
10470;BME280;5282;47.052;15.458;2023-04-01T10:07:01;96306.47;;;13.60;94.21
10470;BME280;5282;47.052;15.458;2023-04-01T10:13:18;96318.19;;;13.47;86.94
10470;BME280;5282;47.052;15.458;2023-04-01T10:22:33;96321.13;;;13.39;84.27
10470;BME280;5282;47.052;15.458;2023-04-01T10:25:24;96310.00;;;13.61;64.10
10470;BME280;5282;47.052;15.458;2023-04-01T10:31:20;96320.91;;;13.47;56.38
10470;BME280;5282;47.052;15.458;2023-04-01T10:37:19;96313.22;;;13.31;50.11
10470;BME280;5282;47.052;15.458;2023-04-01T10:40:19;96305.56;;;13.34;51.49
10470;BME280;5282;47.052;15.458;2023-04-01T10:43:11;96315.78;;;13.19;47.96
10470;BME280;5282;47.052;15.458;2023-04-01T10:55:18;96309.00;;;13.55;49.16
10470;BME280;5282;47.052;15.458;2023-04-01T10:58:11;96309.47;;;13.77;53.33
10470;BME280;5282;47.052;15.458;2023-04-01T11:01:04;96292.34;;;13.90;50.22
10470;BME280;5282;47.052;15.458;2023-04-01T11:07:04;96299.72;;;14.08;47.86
10470;BME280;5282;47.052;15.458;2023-04-01T11:13:26;96307.09;;;14.45;46.17
10470;BME280;5282;47.052;15.458;2023-04-01T11:16:20;96312.56;;;14.38;45.61
10470;BME280;5282;47.052;15.458;2023-04-01T11:19:19;96313.41;;;14.13;45.54
10470;BME280;5282;47.052;15.458;2023-04-01T11:22:05;96308.91;;;14.51;47.69
10470;BME280;5282;47.052;15.458;2023-04-01T11:25:02;96308.16;;;14.69;51.25
10470;BME280;5282;47.052;15.458;2023-04-01T11:27:52;96304.09;;;14.53;48.34
10470;BME280;5282;47.052;15.458;2023-04-01T11:30:32;96306.56;;;14.36;46.15
10470;BME280;5282;47.052;15.458;2023-04-01T11:33:03;96304.50;;;14.31;47.61
10470;BME280;5282;47.052;15.458;2023-04-01T11:35:55;96299.28;;;14.80;47.23
10470;BME280;5282;47.052;15.458;2023-04-01T11:38:45;96309.16;;;14.93;48.18
10470;BME280;5282;47.052;15.458;2023-04-01T11:41:26;96297.25;;;15.13;46.73
10470;BME280;5282;47.052;15.458;2023-04-01T11:44:10;96299.72;;;15.15;46.62
10470;BME280;5282;47.052;15.458;2023-04-01T11:46:49;96296.94;;;14.84;45.95
10470;BME280;5282;47.052;15.458;2023-04-01T11:49:33;96296.53;;;14.62;46.40
10470;BME280;5282;47.052;15.458;2023-04-01T11:52:15;96296.59;;;14.99;45.42
10470;BME280;5282;47.052;15.458;2023-04-01T11:55:05;96293.25;;;14.78;42.80
10470;BME280;5282;47.052;15.458;2023-04-01T11:57:46;96302.28;;;14.91;43.16
10470;BME280;5282;47.052;15.458;2023-04-01T12:03:21;96294.91;;;14.79;41.46
10470;BME280;5282;47.052;15.458;2023-04-01T12:06:02;96297.84;;;14.78;40.33
10470;BME280;5282;47.052;15.458;2023-04-01T12:08:42;96303.66;;;14.81;42.93
10470;BME280;5282;47.052;15.458;2023-04-01T12:11:17;96305.72;;;14.35;41.42
10470;BME280;5282;47.052;15.458;2023-04-01T12:13:53;96301.94;;;14.62;42.14
10470;BME280;5282;47.052;15.458;2023-04-01T12:16:45;96299.44;;;15.04;42.81
10470;BME280;5282;47.052;15.458;2023-04-01T12:19:23;96292.81;;;15.19;42.52
10470;BME280;5282;47.052;15.458;2023-04-01T12:22:04;96296.34;;;15.38;41.42
10470;BME280;5282;47.052;15.458;2023-04-01T12:24:49;96303.44;;;15.51;41.22
10470;BME280;5282;47.052;15.458;2023-04-01T12:27:38;96302.75;;;15.55;40.76
10470;BME280;5282;47.052;15.458;2023-04-01T12:33:32;96301.25;;;14.92;39.62
10470;BME280;5282;47.052;15.458;2023-04-01T12:36:13;96291.75;;;14.83;40.58
10470;BME280;5282;47.052;15.458;2023-04-01T12:38:55;96298.75;;;14.72;40.59
10470;BME280;5282;47.052;15.458;2023-04-01T12:41:32;96297.47;;;14.93;41.25
10470;BME280;5282;47.052;15.458;2023-04-01T12:44:29;96285.66;;;15.24;42.47
10470;BME280;5282;47.052;15.458;2023-04-01T12:47:19;96289.97;;;14.76;40.01
10470;BME280;5282;47.052;15.458;2023-04-01T12:50:15;96292.00;;;14.56;40.99
10470;BME280;5282;47.052;15.458;2023-04-01T12:52:57;96285.59;;;14.75;40.84
10470;BME280;5282;47.052;15.458;2023-04-01T12:55:38;96284.53;;;14.51;40.13
10470;BME280;5282;47.052;15.458;2023-04-01T13:01:26;96278.88;;;14.34;38.93
10470;BME280;5282;47.052;15.458;2023-04-01T13:04:22;96276.16;;;14.34;39.18
10470;BME280;5282;47.052;15.458;2023-04-01T13:07:07;96271.06;;;14.44;40.27
10470;BME280;5282;47.052;15.458;2023-04-01T13:09:46;96267.38;;;14.39;39.26
10470;BME280;5282;47.052;15.458;2023-04-01T13:12:34;96269.81;;;14.22;39.61
10470;BME280;5282;47.052;15.458;2023-04-01T13:15:15;96259.75;;;14.29;39.48
10470;BME280;5282;47.052;15.458;2023-04-01T13:17:53;96267.44;;;14.32;38.72
10470;BME280;5282;47.052;15.458;2023-04-01T13:20:41;96248.34;;;14.45;38.17
10470;BME280;5282;47.052;15.458;2023-04-01T13:23:18;96253.50;;;14.28;38.53
10470;BME280;5282;47.052;15.458;2023-04-01T13:25:54;96255.91;;;14.18;38.49
10470;BME280;5282;47.052;15.458;2023-04-01T13:28:28;96257.94;;;14.23;38.55
10470;BME280;5282;47.052;15.458;2023-04-01T13:31:01;96261.16;;;14.13;36.99
10470;BME280;5282;47.052;15.458;2023-04-01T13:33:38;96256.34;;;13.89;37.30
10470;BME280;5282;47.052;15.458;2023-04-01T13:36:21;96261.91;;;14.20;38.39
10470;BME280;5282;47.052;15.458;2023-04-01T13:39:18;96254.41;;;14.22;37.55
10470;BME280;5282;47.052;15.458;2023-04-01T13:42:05;96256.56;;;14.57;38.80
10470;BME280;5282;47.052;15.458;2023-04-01T13:44:40;96249.75;;;14.73;37.26
10470;BME280;5282;47.052;15.458;2023-04-01T13:47:24;96251.50;;;15.05;36.87
10470;BME280;5282;47.052;15.458;2023-04-01T13:50:24;96244.63;;;15.02;36.01
10470;BME280;5282;47.052;15.458;2023-04-01T13:53:16;96240.72;;;15.59;37.42
10470;BME280;5282;47.052;15.458;2023-04-01T13:55:55;96240.69;;;15.78;36.44
10470;BME280;5282;47.052;15.458;2023-04-01T13:58:43;96234.41;;;15.65;35.91
10470;BME280;5282;47.052;15.458;2023-04-01T14:01:19;96232.31;;;15.49;35.61
10470;BME280;5282;47.052;15.458;2023-04-01T14:04:03;96238.09;;;15.40;36.32
10470;BME280;5282;47.052;15.458;2023-04-01T14:06:50;96229.69;;;15.72;36.99
10470;BME280;5282;47.052;15.458;2023-04-01T14:12:17;96218.44;;;15.87;35.23
10470;BME280;5282;47.052;15.458;2023-04-01T14:15:04;96218.69;;;16.10;34.86
10470;BME280;5282;47.052;15.458;2023-04-01T14:17:43;96215.03;;;15.92;35.28
10470;BME280;5282;47.052;15.458;2023-04-01T14:20:27;96216.72;;;15.63;34.36
10470;BME280;5282;47.052;15.458;2023-04-01T14:23:29;96210.13;;;15.82;35.06
10470;BME280;5282;47.052;15.458;2023-04-01T14:26:22;96205.00;;;16.28;35.98
10470;BME280;5282;47.052;15.458;2023-04-01T14:28:56;96205.94;;;16.46;34.88
10470;BME280;5282;47.052;15.458;2023-04-01T14:31:48;96202.13;;;16.59;34.11
10470;BME280;5282;47.052;15.458;2023-04-01T14:34:28;96192.66;;;16.85;34.91
10470;BME280;5282;47.052;15.458;2023-04-01T14:37:10;96198.72;;;16.40;33.69
10470;BME280;5282;47.052;15.458;2023-04-01T14:39:54;96200.63;;;16.39;33.62
10470;BME280;5282;47.052;15.458;2023-04-01T14:42:41;96203.34;;;16.03;33.29
10470;BME280;5282;47.052;15.458;2023-04-01T14:48:30;96193.41;;;15.97;32.86
10470;BME280;5282;47.052;15.458;2023-04-01T14:51:04;96198.44;;;15.70;33.53
10470;BME280;5282;47.052;15.458;2023-04-01T14:53:38;96201.84;;;15.65;33.36